Time;durP1;ratioP1;P1;durP2;ratioP2;P2;SDS_P1;SDS_P2;PMS_P1;PMS_P2;Temp;Humidity;BMP_temperature;BMP_pressure;BME280_temperature;BME280_humidity;BME280_pressure;Samples;Min_cycle;Max_cycle;Signal;HPM_P1;HPM_P2
2023/05/08 00:00:21;;;;;;;;;12.67;11.33;;;;;-147.47;100.00;64613.53;5073411;27;45453;-84
2023/05/08 00:02:46;;;;;;;;;17.33;14.33;;;;;-147.47;100.00;64613.53;5046078;28;46749;-84
2023/05/08 00:05:12;;;;;;;;;14.67;14.67;;;;;-147.47;100.00;64613.53;5047185;28;45419;-84
2023/05/08 00:07:38;;;;;;;;;13.33;13.33;;;;;-147.47;100.00;64613.53;5069513;28;45525;-83
2023/05/08 00:10:05;;;;;;;;;19.67;13.00;;;;;-147.47;100.00;64613.53;5067745;28;45447;-83
2023/05/08 00:12:30;;;;;;;;;12.33;12.33;;;;;-147.47;100.00;64613.53;5072964;28;45998;-82
2023/05/08 00:14:56;;;;;;;;;15.00;14.00;;;;;-147.47;100.00;64613.53;5056032;28;45785;-83
2023/05/08 00:17:21;;;;;;;;;15.67;13.67;;;;;-147.47;100.00;64613.53;5068228;27;45553;-84
2023/05/08 00:19:47;;;;;;;;;19.67;14.33;;;;;-147.47;100.00;64613.53;5083592;27;45539;-82
2023/05/08 00:22:13;;;;;;;;;13.67;13.67;;;;;-147.47;100.00;64613.53;5075169;27;46292;-81
2023/05/08 00:24:38;;;;;;;;;18.33;13.67;;;;;-147.47;100.00;64613.53;5052716;28;45285;-82
2023/05/08 00:27:04;;;;;;;;;19.00;12.67;;;;;-147.47;100.00;64613.53;5050537;28;45451;-82
2023/05/08 00:29:30;;;;;;;;;13.33;11.33;;;;;-147.47;100.00;64613.53;5075128;27;45407;-82
2023/05/08 00:31:55;;;;;;;;;14.67;12.67;;;;;-147.47;100.00;64613.53;5073513;28;45654;-83
2023/05/08 00:34:21;;;;;;;;;15.67;14.00;;;;;-147.47;100.00;64613.53;5061566;28;45928;-86
2023/05/08 00:36:46;;;;;;;;;12.33;12.33;;;;;-147.47;100.00;64613.53;5078668;27;45772;-84
2023/05/08 00:39:12;;;;;;;;;13.33;10.67;;;;;-147.47;100.00;64613.53;5073572;28;45623;-85
2023/05/08 00:41:37;;;;;;;;;12.00;11.67;;;;;-147.47;100.00;64613.53;5052420;28;45399;-84
2023/05/08 00:44:03;;;;;;;;;13.67;12.67;;;;;-147.47;100.00;64613.53;5063707;28;45863;-84
2023/05/08 00:46:29;;;;;;;;;11.33;11.33;;;;;-147.47;100.00;64613.53;5050618;28;45454;-83
2023/05/08 00:48:55;;;;;;;;;15.33;11.33;;;;;-147.47;100.00;64613.53;5056717;28;45897;-85
2023/05/08 00:51:21;;;;;;;;;15.67;12.33;;;;;-147.47;100.00;64613.53;5073503;28;45614;-85
2023/05/08 00:53:47;;;;;;;;;12.33;11.33;;;;;-147.47;100.00;64613.53;5068622;28;45677;-83
2023/05/08 00:56:14;;;;;;;;;11.00;11.00;;;;;-147.47;100.00;64613.53;5054744;28;45325;-83
2023/05/08 00:58:42;;;;;;;;;13.00;8.67;;;;;-147.47;100.00;64613.53;5058323;27;46021;-84
2023/05/08 01:01:10;;;;;;;;;9.33;8.67;;;;;-147.47;100.00;64613.53;5056833;28;47341;-82
2023/05/08 01:03:36;;;;;;;;;14.00;11.67;;;;;-147.47;100.00;64613.53;5075334;27;45812;-82
2023/05/08 01:06:03;;;;;;;;;11.00;9.67;;;;;-147.47;100.00;64613.53;5056754;27;45458;-84
2023/05/08 01:08:30;;;;;;;;;12.33;11.67;;;;;-147.47;100.00;64613.53;5074597;27;45638;-82
2023/05/08 01:11:21;;;;;;;;;13.00;11.00;;;;;-147.47;100.00;64613.53;5080041;27;47420;-82
2023/05/08 01:14:06;;;;;;;;;13.33;12.33;;;;;-147.47;100.00;64613.53;5068282;27;45938;-83
2023/05/08 01:16:52;;;;;;;;;15.33;10.67;;;;;-147.47;100.00;64613.53;5063642;27;45860;-83
2023/05/08 01:19:27;;;;;;;;;13.33;13.33;;;;;-147.47;100.00;64613.53;5079103;27;45529;-82
2023/05/08 01:22:06;;;;;;;;;14.33;12.33;;;;;-147.47;100.00;64613.53;5078840;27;45450;-83
2023/05/08 01:25:08;;;;;;;;;14.33;13.33;;;;;-147.47;100.00;64613.53;5061370;27;45823;-81
2023/05/08 01:28:05;;;;;;;;;15.33;15.33;;;;;-147.47;100.00;64613.53;5053080;28;45641;-83
2023/05/08 01:30:49;;;;;;;;;14.67;10.67;;;;;-147.47;100.00;64613.53;5076801;28;45474;-84
2023/05/08 01:33:48;;;;;;;;;13.33;13.33;;;;;-147.47;100.00;64613.53;5075845;28;45479;-83
2023/05/08 01:36:23;;;;;;;;;17.00;16.33;;;;;-147.47;100.00;64613.53;5090320;28;45534;-83
2023/05/08 01:39:13;;;;;;;;;12.67;12.67;;;;;-147.47;100.00;64613.53;5085380;27;45472;-84
2023/05/08 01:41:42;;;;;;;;;17.00;13.67;;;;;-147.47;100.00;64613.53;5079496;28;45336;-83
2023/05/08 01:44:07;;;;;;;;;16.00;13.33;;;;;-147.47;100.00;64613.53;5082200;27;45461;-83
2023/05/08 01:46:33;;;;;;;;;15.33;13.00;;;;;-147.47;100.00;64613.53;5082271;28;45548;-83
2023/05/08 01:49:05;;;;;;;;;11.33;11.33;;;;;-147.47;100.00;64613.53;5076712;28;45612;-83
2023/05/08 01:51:37;;;;;;;;;11.67;11.67;;;;;-147.47;100.00;64613.53;5081806;27;45430;-84
2023/05/08 01:54:06;;;;;;;;;11.67;10.00;;;;;-147.47;100.00;64613.53;5058248;28;46695;-82
2023/05/08 01:56:34;;;;;;;;;19.00;15.33;;;;;-147.47;100.00;64613.53;5080729;27;45863;-83
2023/05/08 01:59:03;;;;;;;;;12.33;12.33;;;;;-147.47;100.00;64613.53;5070447;27;45625;-82
2023/05/08 02:01:32;;;;;;;;;11.00;11.00;;;;;-147.47;100.00;64613.53;5067889;28;46170;-83
2023/05/08 02:03:59;;;;;;;;;14.00;13.00;;;;;-147.47;100.00;64613.53;5081706;28;45595;-83
2023/05/08 02:06:28;;;;;;;;;15.67;15.00;;;;;-147.47;100.00;64613.53;5082099;28;45828;-83
2023/05/08 02:08:56;;;;;;;;;17.33;16.00;;;;;-147.47;100.00;64613.53;5071389;28;45809;-83
2023/05/08 02:11:23;;;;;;;;;18.00;16.00;;;;;-147.47;100.00;64613.53;5060258;28;46304;-82
2023/05/08 02:13:50;;;;;;;;;22.33;17.00;;;;;-147.47;100.00;64613.53;5053785;28;47845;-82
2023/05/08 02:16:17;;;;;;;;;18.33;15.67;;;;;-147.47;100.00;64613.53;5083872;28;45440;-82
2023/05/08 02:18:52;;;;;;;;;12.67;12.67;;;;;-147.47;100.00;64613.53;5059241;28;45430;-82
2023/05/08 02:21:19;;;;;;;;;17.00;16.00;;;;;-147.47;100.00;64613.53;5092041;27;45400;-82
2023/05/08 02:23:47;;;;;;;;;19.67;17.00;;;;;-147.47;100.00;64613.53;5056355;28;45393;-83
2023/05/08 02:26:14;;;;;;;;;16.67;14.33;;;;;-147.47;100.00;64613.53;5073827;28;45849;-83
2023/05/08 02:28:41;;;;;;;;;18.33;15.67;;;;;-147.47;100.00;64613.53;5070947;27;45642;-83
2023/05/08 02:31:08;;;;;;;;;20.00;17.00;;;;;-147.47;100.00;64613.53;5072419;28;46598;-84
2023/05/08 02:33:37;;;;;;;;;18.33;17.00;;;;;-147.47;100.00;64613.53;5088341;27;45408;-84
2023/05/08 02:36:04;;;;;;;;;12.67;12.33;;;;;-147.47;100.00;64613.53;5087721;27;44730;-83
2023/05/08 02:38:30;;;;;;;;;15.67;11.00;;;;;-147.47;100.00;64613.53;5070961;27;44772;-84
2023/05/08 02:41:00;;;;;;;;;16.67;14.33;;;;;-147.47;100.00;64613.53;5092988;27;45229;-82
2023/05/08 02:43:27;;;;;;;;;20.33;14.67;;;;;-147.47;100.00;64613.53;5100737;27;45164;-84
2023/05/08 02:46:13;;;;;;;;;19.67;15.33;;;;;-147.47;100.00;64613.53;5080822;27;45821;-82
2023/05/08 02:48:56;;;;;;;;;20.00;16.33;;;;;-147.47;100.00;64613.53;5061108;28;45708;-82
2023/05/08 02:51:56;;;;;;;;;18.33;13.33;;;;;-147.47;100.00;64613.53;5068510;27;46029;-81
2023/05/08 02:54:37;;;;;;;;;14.33;13.33;;;;;-147.47;100.00;64613.53;5043121;28;46980;-81
2023/05/08 02:57:12;;;;;;;;;17.00;16.67;;;;;-147.47;100.00;64613.53;5050344;28;45899;-81
2023/05/08 02:59:44;;;;;;;;;16.67;15.33;;;;;-147.47;100.00;64613.53;5067255;27;45738;-80
2023/05/08 03:02:27;;;;;;;;;17.33;15.67;;;;;-147.47;100.00;64613.53;5072349;27;45406;-82
2023/05/08 03:04:58;;;;;;;;;15.33;13.33;;;;;-147.47;100.00;64613.53;5057525;27;48651;-82
2023/05/08 03:07:26;;;;;;;;;19.33;17.00;;;;;-147.47;100.00;64613.53;5081047;27;45634;-81
2023/05/08 03:10:04;;;;;;;;;17.00;17.00;;;;;-147.47;100.00;64613.53;5068571;28;45315;-81
2023/05/08 03:12:32;;;;;;;;;17.00;15.33;;;;;-147.47;100.00;64613.53;5054594;28;46045;-80
2023/05/08 03:15:33;;;;;;;;;17.00;15.33;;;;;-147.47;100.00;64613.53;5073589;28;46857;-81
2023/05/08 03:18:02;;;;;;;;;14.00;12.67;;;;;-147.47;100.00;64613.53;5038810;28;45616;-81
2023/05/08 03:20:35;;;;;;;;;17.33;14.33;;;;;-147.47;100.00;64613.53;5050681;27;45808;-81
2023/05/08 03:23:03;;;;;;;;;12.67;12.33;;;;;-147.47;100.00;64613.53;5048862;28;46199;-79
2023/05/08 03:25:31;;;;;;;;;16.00;14.67;;;;;-147.47;100.00;64613.53;5067523;28;45822;-81
2023/05/08 03:27:58;;;;;;;;;17.00;14.67;;;;;-147.47;100.00;64613.53;5062716;27;46110;-81
2023/05/08 03:30:26;;;;;;;;;19.33;16.00;;;;;-147.47;100.00;64613.53;5073296;27;45516;-81
2023/05/08 03:32:52;;;;;;;;;25.67;19.00;;;;;-147.47;100.00;64613.53;5068951;27;45626;-82
2023/05/08 03:35:19;;;;;;;;;19.33;16.00;;;;;-147.47;100.00;64613.53;5075504;27;45521;-83
2023/05/08 03:37:45;;;;;;;;;15.67;15.67;;;;;-147.47;100.00;64613.53;5091363;27;45381;-82
2023/05/08 03:40:11;;;;;;;;;15.33;13.33;;;;;-147.47;100.00;64613.53;5072401;28;45256;-82
2023/05/08 03:42:38;;;;;;;;;18.33;15.00;;;;;-147.47;100.00;64613.53;5072650;28;47181;-82
2023/05/08 03:45:05;;;;;;;;;17.00;12.67;;;;;-147.47;100.00;64613.53;5082082;27;45406;-81
2023/05/08 03:47:32;;;;;;;;;11.00;11.00;;;;;-147.47;100.00;64613.53;5070429;28;45653;-81
2023/05/08 03:49:59;;;;;;;;;15.67;12.67;;;;;-147.47;100.00;64613.53;5072807;28;45471;-80
2023/05/08 03:52:25;;;;;;;;;11.00;7.67;;;;;-147.47;100.00;64613.53;5073023;27;46764;-81
2023/05/08 03:54:50;;;;;;;;;16.67;11.33;;;;;-147.47;100.00;64613.53;5072922;28;45366;-80
2023/05/08 03:57:15;;;;;;;;;16.00;12.33;;;;;-147.47;100.00;64613.53;5071814;28;45947;-80
2023/05/08 03:59:59;;;;;;;;;14.00;11.67;;;;;-147.47;100.00;64613.53;5069986;28;45865;-82
2023/05/08 04:02:33;;;;;;;;;15.00;13.33;;;;;-147.47;100.00;64613.53;5077304;28;45860;-83
2023/05/08 04:05:09;;;;;;;;;16.33;12.33;;;;;-147.47;100.00;64613.53;5070536;28;45917;-78
2023/05/08 04:07:46;;;;;;;;;14.00;11.00;;;;;-147.47;100.00;64613.53;5080660;27;45841;-79
2023/05/08 04:10:45;;;;;;;;;14.00;12.33;;;;;-147.47;100.00;64613.53;5071005;28;45497;-78
2023/05/08 04:13:21;;;;;;;;;11.33;10.33;;;;;-147.47;100.00;64613.53;5061754;28;46923;-79
2023/05/08 04:15:53;;;;;;;;;16.00;12.00;;;;;-147.47;100.00;64613.53;5052862;28;48096;-81
2023/05/08 04:18:27;;;;;;;;;17.00;17.00;;;;;-147.47;100.00;64613.53;5070474;27;45575;-81
2023/05/08 04:20:55;;;;;;;;;18.33;15.00;;;;;-147.47;100.00;64613.53;5065412;27;45721;-79
2023/05/08 04:23:21;;;;;;;;;21.33;16.00;;;;;-147.47;100.00;64613.53;5049836;28;46726;-79
2023/05/08 04:25:50;;;;;;;;;13.00;10.00;;;;;-147.47;100.00;64613.53;5068961;27;46576;-79
2023/05/08 04:28:17;;;;;;;;;12.33;11.33;;;;;-147.47;100.00;64613.53;5073281;27;45440;-79
2023/05/08 04:30:44;;;;;;;;;12.67;12.67;;;;;-147.47;100.00;64613.53;5063400;27;45690;-79
2023/05/08 04:33:10;;;;;;;;;19.00;15.00;;;;;-147.47;100.00;64613.53;5068100;28;45457;-82
2023/05/08 04:35:48;;;;;;;;;15.33;14.33;;;;;-147.47;100.00;64613.53;5078257;27;45425;-83
2023/05/08 04:38:13;;;;;;;;;13.33;11.67;;;;;-147.47;100.00;64613.53;5054046;27;45491;-84
2023/05/08 04:40:39;;;;;;;;;11.00;10.00;;;;;-147.47;100.00;64613.53;5085639;27;46023;-82
2023/05/08 04:43:05;;;;;;;;;15.33;13.67;;;;;-147.47;100.00;64613.53;5059988;28;46076;-84
2023/05/08 04:45:30;;;;;;;;;15.67;15.00;;;;;-147.47;100.00;64613.53;5057882;27;45447;-83
2023/05/08 04:47:56;;;;;;;;;20.33;14.00;;;;;-147.47;100.00;64613.53;5078861;27;45886;-84
2023/05/08 04:50:21;;;;;;;;;16.00;12.00;;;;;-147.47;100.00;64613.53;5082017;27;45615;-86
2023/05/08 04:52:47;;;;;;;;;13.67;11.67;;;;;-147.47;100.00;64613.53;5087476;27;45441;-84
2023/05/08 04:55:13;;;;;;;;;13.67;11.67;;;;;-147.47;100.00;64613.53;5060026;27;47210;-82
2023/05/08 04:57:39;;;;;;;;;14.00;14.00;;;;;-147.47;100.00;64613.53;5075729;28;45407;-82
2023/05/08 05:00:05;;;;;;;;;17.67;13.67;;;;;-147.47;100.00;64613.53;5057115;28;45380;-84
2023/05/08 05:02:30;;;;;;;;;18.67;15.33;;;;;-147.47;100.00;64613.53;5073027;27;45194;-85
2023/05/08 05:05:00;;;;;;;;;19.00;14.67;;;;;-147.47;100.00;64613.53;5071711;28;45737;-85
2023/05/08 05:07:25;;;;;;;;;15.67;14.33;;;;;-147.47;100.00;64613.53;5065801;28;45829;-84
2023/05/08 05:09:51;;;;;;;;;16.33;12.67;;;;;-147.47;100.00;64613.53;5080712;27;45801;-84
2023/05/08 05:12:16;;;;;;;;;13.67;11.00;;;;;-147.47;100.00;64613.53;5060956;27;45935;-83
2023/05/08 05:14:42;;;;;;;;;12.33;10.67;;;;;-147.47;100.00;64613.53;5078160;27;45688;-81
2023/05/08 05:17:07;;;;;;;;;15.33;14.33;;;;;-147.47;100.00;64613.53;5053041;28;45724;-80
2023/05/08 05:19:33;;;;;;;;;15.33;10.67;;;;;-147.47;100.00;64613.53;5073886;27;45909;-78
2023/05/08 05:21:58;;;;;;;;;11.67;11.67;;;;;-147.47;100.00;64613.53;5070899;28;45371;-85
2023/05/08 05:24:24;;;;;;;;;11.33;11.33;;;;;-147.47;100.00;64613.53;5068940;27;47025;-80
2023/05/08 05:26:49;;;;;;;;;10.00;8.67;;;;;-147.47;100.00;64613.53;5083717;27;45584;-82
2023/05/08 05:29:18;;;;;;;;;11.67;9.67;;;;;-147.47;100.00;64613.53;5090051;27;45701;-80
2023/05/08 05:31:43;;;;;;;;;15.00;11.00;;;;;-147.47;100.00;64613.53;5069562;27;46519;-82
2023/05/08 05:34:09;;;;;;;;;13.00;13.00;;;;;-147.47;100.00;64613.53;5075879;28;46382;-81
2023/05/08 05:36:34;;;;;;;;;13.67;12.00;;;;;-147.47;100.00;64613.53;5082392;27;45497;-80
2023/05/08 05:39:00;;;;;;;;;11.67;9.00;;;;;-147.47;100.00;64613.53;5058015;28;45839;-81
2023/05/08 05:41:25;;;;;;;;;16.67;12.67;;;;;-147.47;100.00;64613.53;5077954;28;44929;-81
2023/05/08 05:43:52;;;;;;;;;14.67;11.67;;;;;-147.47;100.00;64613.53;5071220;27;46774;-82
2023/05/08 05:46:17;;;;;;;;;17.67;16.33;;;;;-147.47;100.00;64613.53;5048980;28;45803;-81
2023/05/08 05:48:47;;;;;;;;;20.33;16.33;;;;;-147.47;100.00;64613.53;5072167;27;45629;-82
2023/05/08 05:51:12;;;;;;;;;15.00;12.33;;;;;-147.47;100.00;64613.53;5067134;27;45583;-81
2023/05/08 05:53:38;;;;;;;;;16.33;15.33;;;;;-147.47;100.00;64613.53;5063909;27;45927;-79
2023/05/08 05:56:04;;;;;;;;;15.33;12.67;;;;;-147.47;100.00;64613.53;5075131;27;45407;-81
2023/05/08 05:58:30;;;;;;;;;15.67;13.67;;;;;-147.47;100.00;64613.53;5073837;27;45902;-79
2023/05/08 06:00:59;;;;;;;;;16.33;15.00;;;;;-147.47;100.00;64613.53;5073209;28;46551;-81
2023/05/08 06:03:25;;;;;;;;;19.00;14.00;;;;;-147.47;100.00;64613.53;5065122;28;45764;-79
2023/05/08 06:05:51;;;;;;;;;21.67;18.00;;;;;-147.47;100.00;64613.53;5078284;27;45737;-79
2023/05/08 06:08:19;;;;;;;;;13.33;11.00;;;;;-147.47;100.00;64613.53;5079603;27;46621;-79
2023/05/08 06:10:44;;;;;;;;;21.33;15.67;;;;;-147.47;100.00;64613.53;5074262;27;45642;-80
2023/05/08 06:13:10;;;;;;;;;14.67;13.33;;;;;-147.47;100.00;64613.53;5077496;27;45443;-82
2023/05/08 06:15:35;;;;;;;;;19.67;16.67;;;;;-147.47;100.00;64613.53;5067032;27;45699;-79
2023/05/08 06:18:01;;;;;;;;;14.33;12.67;;;;;-147.47;100.00;64613.53;5059595;28;45494;-79
2023/05/08 06:20:26;;;;;;;;;12.67;8.67;;;;;-147.47;100.00;64613.53;5026169;27;46807;-80
2023/05/08 06:22:52;;;;;;;;;9.67;6.67;;;;;-147.47;100.00;64613.53;5056175;27;45993;-78
2023/05/08 06:25:18;;;;;;;;;7.33;7.33;;;;;-147.47;100.00;64613.53;5056172;27;46366;-78
2023/05/08 06:27:43;;;;;;;;;10.00;10.00;;;;;-147.47;100.00;64613.53;5079331;27;45550;-80
2023/05/08 06:30:09;;;;;;;;;13.67;9.67;;;;;-147.47;100.00;64613.53;5088318;27;45458;-79
2023/05/08 06:32:35;;;;;;;;;13.67;10.33;;;;;-147.47;100.00;64613.53;5052153;27;47379;-79
2023/05/08 06:35:00;;;;;;;;;9.33;8.67;;;;;-147.47;100.00;64613.53;5050154;27;45484;-81
2023/05/08 06:37:26;;;;;;;;;10.00;9.00;;;;;-147.47;100.00;64613.53;5061181;28;46642;-79
2023/05/08 06:39:51;;;;;;;;;13.33;9.67;;;;;-147.47;100.00;64613.53;5066699;28;46805;-80
2023/05/08 06:42:16;;;;;;;;;12.33;10.67;;;;;-147.47;100.00;64613.53;5057508;28;45790;-78
2023/05/08 06:44:42;;;;;;;;;8.33;8.33;;;;;-147.47;100.00;64613.53;5071538;27;45627;-79
2023/05/08 06:47:07;;;;;;;;;8.00;8.00;;;;;-147.47;100.00;64613.53;5066059;27;45537;-79
2023/05/08 06:49:35;;;;;;;;;8.33;7.00;;;;;-147.47;100.00;64613.53;5069842;28;45890;-80
2023/05/08 06:52:00;;;;;;;;;10.67;10.00;;;;;-147.47;100.00;64613.53;5063066;27;45661;-81
2023/05/08 06:54:27;;;;;;;;;10.67;10.67;;;;;-147.47;100.00;64613.53;5077165;27;45409;-82
2023/05/08 06:56:53;;;;;;;;;11.67;11.00;;;;;-147.47;100.00;64613.53;5064410;27;45433;-80
2023/05/08 06:59:20;;;;;;;;;14.00;13.33;;;;;-147.47;100.00;64613.53;5068980;27;46639;-82
2023/05/08 07:01:45;;;;;;;;;15.00;12.67;;;;;-147.47;100.00;64613.53;5076647;27;46276;-80
2023/05/08 07:04:11;;;;;;;;;14.67;10.67;;;;;-147.47;100.00;64613.53;5063743;28;45749;-79
2023/05/08 07:06:36;;;;;;;;;11.00;11.00;;;;;-147.47;100.00;64613.53;5072439;27;45386;-80
2023/05/08 07:09:02;;;;;;;;;17.33;13.67;;;;;-147.47;100.00;64613.53;5067003;27;45814;-80
2023/05/08 07:11:27;;;;;;;;;10.67;7.67;;;;;-147.47;100.00;64613.53;5055200;27;46412;-80
2023/05/08 07:13:53;;;;;;;;;8.67;4.00;;;;;-147.47;100.00;64613.53;5057495;27;45599;-78
2023/05/08 07:16:19;;;;;;;;;12.33;11.33;;;;;-147.47;100.00;64613.53;5061925;28;45504;-80
2023/05/08 07:18:44;;;;;;;;;8.33;8.00;;;;;-147.47;100.00;64613.53;5049580;28;45856;-79
2023/05/08 07:21:10;;;;;;;;;11.67;8.67;;;;;-147.47;100.00;64613.53;5047707;28;45477;-80
2023/05/08 07:23:35;;;;;;;;;11.67;11.33;;;;;-147.47;100.00;64613.53;5071104;27;45371;-77
2023/05/08 07:26:01;;;;;;;;;15.33;11.00;;;;;-147.47;100.00;64613.53;5077256;27;45892;-81
2023/05/08 07:28:27;;;;;;;;;14.33;13.33;;;;;-147.47;100.00;64613.53;5068561;28;45761;-82
2023/05/08 07:30:52;;;;;;;;;16.00;16.00;;;;;-147.47;100.00;64613.53;5066967;28;46112;-81
2023/05/08 07:33:18;;;;;;;;;17.67;14.67;;;;;-147.47;100.00;64613.53;5073995;27;46091;-81
2023/05/08 07:35:44;;;;;;;;;19.00;13.33;;;;;-147.47;100.00;64613.53;5033087;28;46176;-81
2023/05/08 07:38:09;;;;;;;;;19.33;14.33;;;;;-147.47;100.00;64613.53;5075537;27;45532;-82
2023/05/08 07:40:35;;;;;;;;;16.00;13.33;;;;;-147.47;100.00;64613.53;5055143;28;45433;-80
2023/05/08 07:43:01;;;;;;;;;13.00;8.67;;;;;-147.47;100.00;64613.53;5060647;28;46465;-80
2023/05/08 07:45:28;;;;;;;;;12.00;9.00;;;;;-147.47;100.00;64613.53;5080835;27;45707;-81
2023/05/08 07:47:56;;;;;;;;;12.00;9.67;;;;;-147.47;100.00;64613.53;5068131;27;45476;-80
2023/05/08 07:50:22;;;;;;;;;11.67;11.33;;;;;-147.47;100.00;64613.53;5074921;27;45770;-81
2023/05/08 07:52:48;;;;;;;;;9.33;9.33;;;;;-147.47;100.00;64613.53;5073134;27;45363;-80
2023/05/08 07:55:15;;;;;;;;;14.00;10.00;;;;;-147.47;100.00;64613.53;5076085;27;45877;-81
2023/05/08 07:57:42;;;;;;;;;12.00;11.67;;;;;-147.47;100.00;64613.53;5048322;28;46273;-81
2023/05/08 08:00:14;;;;;;;;;10.67;8.33;;;;;-147.47;100.00;64613.53;5062880;28;46614;-80
2023/05/08 08:02:41;;;;;;;;;11.67;9.00;;;;;-147.47;100.00;64613.53;5067654;27;45710;-84
2023/05/08 08:05:07;;;;;;;;;11.67;9.00;;;;;-147.47;100.00;64613.53;5044881;28;45902;-81
2023/05/08 08:07:33;;;;;;;;;11.00;9.33;;;;;-147.47;100.00;64613.53;5066266;27;45722;-81
2023/05/08 08:10:00;;;;;;;;;11.00;9.33;;;;;-147.47;100.00;64613.53;5065308;27;46706;-81
2023/05/08 08:12:25;;;;;;;;;10.00;8.33;;;;;-147.47;100.00;64613.53;5072289;27;45488;-81
2023/05/08 08:14:51;;;;;;;;;10.33;10.00;;;;;-147.47;100.00;64613.53;5065225;27;45554;-81
2023/05/08 08:17:16;;;;;;;;;9.33;8.33;;;;;-147.47;100.00;64613.53;5051679;27;46452;-81
2023/05/08 08:19:42;;;;;;;;;13.67;12.33;;;;;-147.47;100.00;64613.53;5049656;28;47259;-84
2023/05/08 08:22:08;;;;;;;;;13.67;11.67;;;;;-147.47;100.00;64613.53;5068107;27;45718;-81
2023/05/08 08:24:34;;;;;;;;;14.00;12.67;;;;;-147.47;100.00;64613.53;5071738;27;45503;-83
2023/05/08 08:26:59;;;;;;;;;12.00;8.67;;;;;-147.47;100.00;64613.53;5064743;27;45775;-81
2023/05/08 08:29:25;;;;;;;;;22.33;17.67;;;;;-147.47;100.00;64613.53;5063702;27;45789;-82
2023/05/08 08:31:51;;;;;;;;;9.00;7.67;;;;;-147.47;100.00;64613.53;5072871;27;45350;-83
2023/05/08 08:34:16;;;;;;;;;21.33;18.67;;;;;-147.47;100.00;64613.53;5063056;27;45612;-83
2023/05/08 08:36:42;;;;;;;;;18.67;16.67;;;;;-147.47;100.00;64613.53;5050071;27;45937;-82
2023/05/08 08:39:08;;;;;;;;;40.00;33.33;;;;;-147.47;100.00;64613.53;5068361;27;46103;-84
2023/05/08 08:41:33;;;;;;;;;55.33;37.67;;;;;-147.47;100.00;64613.53;5071020;27;45870;-83
2023/05/08 08:43:59;;;;;;;;;36.67;32.33;;;;;-147.47;100.00;64613.53;5073015;27;45755;-83
2023/05/08 08:46:26;;;;;;;;;50.33;39.33;;;;;-147.47;100.00;64613.53;5077641;27;45675;-81
2023/05/08 08:48:54;;;;;;;;;20.33;14.67;;;;;-147.47;100.00;64613.53;5075046;27;45539;-84
2023/05/08 08:51:44;;;;;;;;;16.33;13.00;;;;;-147.47;100.00;64613.53;5052162;28;45931;-82
2023/05/08 08:54:14;;;;;;;;;17.00;13.67;;;;;-147.47;100.00;64613.53;5069301;27;45849;-82
2023/05/08 08:56:43;;;;;;;;;15.00;10.33;;;;;-147.47;100.00;64613.53;5052810;28;46101;-81
2023/05/08 08:59:10;;;;;;;;;17.67;13.67;;;;;-147.47;100.00;64613.53;5079220;27;45796;-82
2023/05/08 09:01:39;;;;;;;;;11.00;11.00;;;;;-147.47;100.00;64613.53;5068318;27;45296;-81
2023/05/08 09:04:05;;;;;;;;;12.33;11.33;;;;;-147.47;100.00;64613.53;5063823;27;45724;-80
2023/05/08 09:06:34;;;;;;;;;15.67;11.67;;;;;-147.47;100.00;64613.53;5071826;27;45755;-81
2023/05/08 09:09:00;;;;;;;;;12.33;11.33;;;;;-147.47;100.00;64613.53;5073638;27;46762;-81
2023/05/08 09:11:26;;;;;;;;;15.67;10.33;;;;;-147.47;100.00;64613.53;5073900;27;45412;-79
2023/05/08 09:13:54;;;;;;;;;11.00;8.50;;;;;-147.47;100.00;64613.53;5064828;28;45473;-80
2023/05/08 09:16:20;;;;;;;;;17.33;11.33;;;;;-147.47;100.00;64613.53;5065783;28;45711;-82
2023/05/08 09:18:46;;;;;;;;;10.50;10.50;;;;;-147.47;100.00;64613.53;5065352;27;45407;-82
2023/05/08 09:21:11;;;;;;;;;14.00;11.00;;;;;-147.47;100.00;64613.53;5069225;27;45386;-81
2023/05/08 09:23:53;;;;;;;;;13.00;9.33;;;;;-147.47;100.00;64613.53;5070939;27;45354;-82
2023/05/08 09:26:36;;;;;;;;;39.00;33.00;;;;;-147.47;100.00;64613.53;5050143;27;45933;-82
2023/05/08 09:29:10;;;;;;;;;18.67;16.00;;;;;-147.47;100.00;64613.53;5063740;27;45810;-83
2023/05/08 09:31:40;;;;;;;;;19.00;14.67;;;;;-147.47;100.00;64613.53;5069079;28;45606;-82
2023/05/08 09:34:08;;;;;;;;;16.67;14.33;;;;;-147.47;100.00;64613.53;5066263;27;45312;-83
2023/05/08 09:36:35;;;;;;;;;9.67;9.67;;;;;-147.47;100.00;64613.53;5067205;27;46055;-79
2023/05/08 09:39:02;;;;;;;;;11.33;10.67;;;;;-147.47;100.00;64613.53;5066526;28;45939;-83
2023/05/08 09:41:27;;;;;;;;;11.67;11.33;;;;;-147.47;100.00;64613.53;5060253;27;45550;-81
2023/05/08 09:44:03;;;;;;;;;14.00;11.00;;;;;-147.47;100.00;64613.53;5066212;28;45639;-82
2023/05/08 09:46:31;;;;;;;;;12.00;8.00;;;;;-147.47;100.00;64613.53;5059459;28;45755;-80
2023/05/08 09:48:59;;;;;;;;;8.33;7.00;;;;;-147.47;100.00;64613.53;5070672;27;46539;-84
2023/05/08 09:51:27;;;;;;;;;9.50;7.00;;;;;-147.47;100.00;64613.53;5073467;27;45576;-83
2023/05/08 09:53:54;;;;;;;;;11.67;9.67;;;;;-147.47;100.00;64613.53;5062679;28;45665;-80
2023/05/08 09:56:38;;;;;;;;;8.75;8.50;;;;;-147.47;100.00;64613.53;5045010;28;46210;-82
2023/05/08 09:59:20;;;;;;;;;20.33;15.67;;;;;-147.47;100.00;64613.53;5049920;28;47057;-81
2023/05/08 10:01:47;;;;;;;;;17.00;12.75;;;;;-147.47;100.00;64613.53;5052266;27;52136;-82
2023/05/08 10:04:13;;;;;;;;;6.50;6.25;;;;;-147.47;100.00;64613.53;5070791;28;45608;-80
2023/05/08 10:06:39;;;;;;;;;16.50;13.75;;;;;-147.47;100.00;64613.53;5073625;27;45472;-83
2023/05/08 10:09:09;;;;;;;;;11.00;9.75;;;;;-147.47;100.00;64613.53;5067763;28;45495;-83
2023/05/08 10:11:35;;;;;;;;;4.50;4.50;;;;;-147.47;100.00;64613.53;5058714;28;45568;-83
2023/05/08 10:14:01;;;;;;;;;7.50;6.25;;;;;-147.47;100.00;64613.53;5063622;27;45777;-83
2023/05/08 10:16:28;;;;;;;;;10.50;9.00;;;;;-147.47;100.00;64613.53;5068476;27;45455;-83
2023/05/08 10:19:04;;;;;;;;;7.75;7.00;;;;;-147.47;100.00;64613.53;5059844;28;45975;-81
2023/05/08 10:21:34;;;;;;;;;7.50;6.50;;;;;-147.47;100.00;64613.53;5072806;27;45845;-84
2023/05/08 10:24:04;;;;;;;;;8.00;7.00;;;;;-147.47;100.00;64613.53;5067312;27;45549;-79
2023/05/08 10:26:31;;;;;;;;;6.75;6.75;;;;;-147.47;100.00;64613.53;5050163;27;46315;-81
2023/05/08 10:29:03;;;;;;;;;6.50;6.00;;;;;-147.47;100.00;64613.53;5060470;27;45512;-81
2023/05/08 10:31:32;;;;;;;;;12.25;8.25;;;;;-147.47;100.00;64613.53;5072674;27;45787;-80
2023/05/08 10:34:03;;;;;;;;;7.50;6.00;;;;;-147.47;100.00;64613.53;5066201;27;45579;-80
2023/05/08 10:36:30;;;;;;;;;8.00;6.25;;;;;-147.47;100.00;64613.53;5066775;27;45513;-82
2023/05/08 10:38:59;;;;;;;;;6.25;6.25;;;;;-147.47;100.00;64613.53;5068818;27;45782;-79
2023/05/08 10:41:26;;;;;;;;;11.00;8.25;;;;;-147.47;100.00;64613.53;5060970;27;45482;-82
2023/05/08 10:43:53;;;;;;;;;7.50;6.50;;;;;-147.47;100.00;64613.53;5053409;28;45400;-79
2023/05/08 10:46:21;;;;;;;;;9.25;8.25;;;;;-147.47;100.00;64613.53;5053738;28;46455;-79
2023/05/08 10:48:59;;;;;;;;;9.50;9.50;;;;;-147.47;100.00;64613.53;5073684;27;45448;-82
2023/05/08 10:51:51;;;;;;;;;5.50;5.50;;;;;-147.47;100.00;64613.53;5050703;27;45952;-82
2023/05/08 10:54:35;;;;;;;;;7.75;6.75;;;;;-147.47;100.00;64613.53;5067179;28;45917;-82
2023/05/08 10:57:07;;;;;;;;;8.00;7.00;;;;;-147.47;100.00;64613.53;5046744;28;45695;-82
2023/05/08 10:59:35;;;;;;;;;11.00;9.25;;;;;-147.47;100.00;64613.53;5068993;27;45825;-82
2023/05/08 11:02:06;;;;;;;;;6.75;6.75;;;;;-147.47;100.00;64613.53;5043672;28;45881;-81
2023/05/08 11:04:31;;;;;;;;;9.25;8.25;;;;;-147.47;100.00;64613.53;5044597;28;45847;-81